sensor_id;sensor_type;location;lat;lon;timestamp;P1;durP1;ratioP1;P2;durP2;ratioP2
4726;SDS011;2377;51.734;8.950;2023-04-03T00:00:53;4.20;;;2.03;;
4726;SDS011;2377;51.734;8.950;2023-04-03T00:03:20;5.37;;;2.17;;
4726;SDS011;2377;51.734;8.950;2023-04-03T00:05:47;9.17;;;2.77;;
4726;SDS011;2377;51.734;8.950;2023-04-03T00:08:14;4.97;;;1.90;;
4726;SDS011;2377;51.734;8.950;2023-04-03T00:10:43;4.20;;;2.07;;
4726;SDS011;2377;51.734;8.950;2023-04-03T00:13:10;6.50;;;2.10;;
4726;SDS011;2377;51.734;8.950;2023-04-03T00:15:38;9.50;;;2.37;;
4726;SDS011;2377;51.734;8.950;2023-04-03T00:18:05;4.53;;;1.90;;
4726;SDS011;2377;51.734;8.950;2023-04-03T00:20:33;4.93;;;1.87;;
4726;SDS011;2377;51.734;8.950;2023-04-03T00:23:01;5.70;;;2.20;;
4726;SDS011;2377;51.734;8.950;2023-04-03T00:25:28;6.00;;;2.37;;
4726;SDS011;2377;51.734;8.950;2023-04-03T00:27:56;4.57;;;2.13;;
4726;SDS011;2377;51.734;8.950;2023-04-03T00:30:24;5.50;;;2.07;;
4726;SDS011;2377;51.734;8.950;2023-04-03T00:32:51;11.20;;;2.40;;
4726;SDS011;2377;51.734;8.950;2023-04-03T00:35:19;7.47;;;2.20;;
4726;SDS011;2377;51.734;8.950;2023-04-03T00:37:50;5.43;;;2.30;;
4726;SDS011;2377;51.734;8.950;2023-04-03T00:40:18;5.80;;;2.20;;
4726;SDS011;2377;51.734;8.950;2023-04-03T00:42:48;5.90;;;1.87;;
4726;SDS011;2377;51.734;8.950;2023-04-03T00:45:28;7.20;;;1.97;;
4726;SDS011;2377;51.734;8.950;2023-04-03T00:48:07;6.10;;;2.20;;
4726;SDS011;2377;51.734;8.950;2023-04-03T00:50:40;5.80;;;1.90;;
4726;SDS011;2377;51.734;8.950;2023-04-03T00:53:10;6.67;;;2.50;;
4726;SDS011;2377;51.734;8.950;2023-04-03T00:55:43;6.93;;;2.43;;
4726;SDS011;2377;51.734;8.950;2023-04-03T00:58:13;5.70;;;2.03;;
4726;SDS011;2377;51.734;8.950;2023-04-03T01:00:45;5.73;;;2.00;;
4726;SDS011;2377;51.734;8.950;2023-04-03T01:03:16;4.90;;;2.07;;
4726;SDS011;2377;51.734;8.950;2023-04-03T01:05:43;7.20;;;1.93;;
4726;SDS011;2377;51.734;8.950;2023-04-03T01:08:10;4.80;;;1.90;;
4726;SDS011;2377;51.734;8.950;2023-04-03T01:10:37;6.30;;;2.10;;
4726;SDS011;2377;51.734;8.950;2023-04-03T01:13:17;9.93;;;2.70;;
4726;SDS011;2377;51.734;8.950;2023-04-03T01:15:50;15.00;;;2.57;;
4726;SDS011;2377;51.734;8.950;2023-04-03T01:18:17;7.47;;;2.20;;
4726;SDS011;2377;51.734;8.950;2023-04-03T01:24:10;10.83;;;3.37;;
4726;SDS011;2377;51.734;8.950;2023-04-03T01:26:50;8.10;;;2.73;;
4726;SDS011;2377;51.734;8.950;2023-04-03T01:29:17;11.90;;;2.50;;
4726;SDS011;2377;51.734;8.950;2023-04-03T01:31:48;8.63;;;2.43;;
4726;SDS011;2377;51.734;8.950;2023-04-03T01:34:17;5.57;;;2.10;;
4726;SDS011;2377;51.734;8.950;2023-04-03T01:36:44;9.37;;;2.63;;
4726;SDS011;2377;51.734;8.950;2023-04-03T01:39:11;4.70;;;2.20;;
4726;SDS011;2377;51.734;8.950;2023-04-03T01:41:38;6.60;;;2.00;;
4726;SDS011;2377;51.734;8.950;2023-04-03T01:44:05;7.73;;;2.57;;
4726;SDS011;2377;51.734;8.950;2023-04-03T01:46:33;7.93;;;2.23;;
4726;SDS011;2377;51.734;8.950;2023-04-03T01:49:02;8.70;;;2.10;;
4726;SDS011;2377;51.734;8.950;2023-04-03T01:51:29;8.97;;;2.50;;
4726;SDS011;2377;51.734;8.950;2023-04-03T01:53:56;6.37;;;1.87;;
4726;SDS011;2377;51.734;8.950;2023-04-03T01:56:23;6.60;;;2.53;;
4726;SDS011;2377;51.734;8.950;2023-04-03T01:58:51;6.77;;;2.60;;
4726;SDS011;2377;51.734;8.950;2023-04-03T02:01:18;6.30;;;2.17;;
4726;SDS011;2377;51.734;8.950;2023-04-03T02:03:46;6.30;;;1.93;;
4726;SDS011;2377;51.734;8.950;2023-04-03T02:06:14;6.40;;;2.23;;
4726;SDS011;2377;51.734;8.950;2023-04-03T02:08:41;4.13;;;1.80;;
4726;SDS011;2377;51.734;8.950;2023-04-03T02:11:08;4.23;;;2.03;;
4726;SDS011;2377;51.734;8.950;2023-04-03T02:13:35;9.60;;;2.53;;
4726;SDS011;2377;51.734;8.950;2023-04-03T02:16:06;7.23;;;2.20;;
4726;SDS011;2377;51.734;8.950;2023-04-03T02:18:35;10.90;;;2.60;;
4726;SDS011;2377;51.734;8.950;2023-04-03T02:21:02;7.60;;;2.30;;
4726;SDS011;2377;51.734;8.950;2023-04-03T02:23:32;6.70;;;2.27;;
4726;SDS011;2377;51.734;8.950;2023-04-03T02:26:04;12.00;;;2.23;;
4726;SDS011;2377;51.734;8.950;2023-04-03T02:28:34;4.83;;;2.87;;
4726;SDS011;2377;51.734;8.950;2023-04-03T02:31:01;6.07;;;2.53;;
4726;SDS011;2377;51.734;8.950;2023-04-03T02:33:29;7.10;;;2.23;;
4726;SDS011;2377;51.734;8.950;2023-04-03T02:35:56;11.13;;;2.27;;
4726;SDS011;2377;51.734;8.950;2023-04-03T02:38:25;8.77;;;2.00;;
4726;SDS011;2377;51.734;8.950;2023-04-03T02:40:55;7.00;;;2.20;;
4726;SDS011;2377;51.734;8.950;2023-04-03T02:43:26;4.77;;;1.97;;
4726;SDS011;2377;51.734;8.950;2023-04-03T02:45:54;9.10;;;2.23;;
4726;SDS011;2377;51.734;8.950;2023-04-03T02:48:21;5.40;;;1.80;;
4726;SDS011;2377;51.734;8.950;2023-04-03T02:50:49;6.27;;;2.63;;
4726;SDS011;2377;51.734;8.950;2023-04-03T02:53:17;5.73;;;1.90;;
4726;SDS011;2377;51.734;8.950;2023-04-03T02:55:44;8.30;;;2.47;;
4726;SDS011;2377;51.734;8.950;2023-04-03T02:58:13;5.97;;;2.03;;
4726;SDS011;2377;51.734;8.950;2023-04-03T03:00:41;4.27;;;2.13;;
4726;SDS011;2377;51.734;8.950;2023-04-03T03:03:08;8.40;;;2.27;;
4726;SDS011;2377;51.734;8.950;2023-04-03T03:05:35;7.60;;;2.20;;
4726;SDS011;2377;51.734;8.950;2023-04-03T03:08:02;7.10;;;1.73;;
4726;SDS011;2377;51.734;8.950;2023-04-03T03:10:29;7.00;;;2.30;;
4726;SDS011;2377;51.734;8.950;2023-04-03T03:12:56;7.33;;;2.27;;
4726;SDS011;2377;51.734;8.950;2023-04-03T03:15:25;4.00;;;2.00;;
4726;SDS011;2377;51.734;8.950;2023-04-03T03:17:52;4.67;;;1.73;;
4726;SDS011;2377;51.734;8.950;2023-04-03T03:20:19;4.80;;;1.60;;
4726;SDS011;2377;51.734;8.950;2023-04-03T03:22:46;4.33;;;2.37;;
4726;SDS011;2377;51.734;8.950;2023-04-03T03:25:13;4.67;;;1.87;;
4726;SDS011;2377;51.734;8.950;2023-04-03T03:27:40;10.40;;;2.00;;
4726;SDS011;2377;51.734;8.950;2023-04-03T03:30:08;7.20;;;2.20;;
4726;SDS011;2377;51.734;8.950;2023-04-03T03:32:37;3.60;;;1.70;;
4726;SDS011;2377;51.734;8.950;2023-04-03T03:35:04;5.13;;;2.23;;
4726;SDS011;2377;51.734;8.950;2023-04-03T03:37:32;4.90;;;2.00;;
4726;SDS011;2377;51.734;8.950;2023-04-03T03:39:59;8.33;;;1.77;;
4726;SDS011;2377;51.734;8.950;2023-04-03T03:42:26;6.30;;;2.10;;
4726;SDS011;2377;51.734;8.950;2023-04-03T03:44:53;5.07;;;1.70;;
4726;SDS011;2377;51.734;8.950;2023-04-03T03:47:20;5.43;;;1.70;;
4726;SDS011;2377;51.734;8.950;2023-04-03T03:49:49;3.77;;;1.57;;
4726;SDS011;2377;51.734;8.950;2023-04-03T03:52:16;6.13;;;2.23;;
4726;SDS011;2377;51.734;8.950;2023-04-03T03:54:50;10.17;;;2.70;;
4726;SDS011;2377;51.734;8.950;2023-04-03T03:57:17;6.10;;;2.40;;
4726;SDS011;2377;51.734;8.950;2023-04-03T03:59:44;3.30;;;1.63;;
4726;SDS011;2377;51.734;8.950;2023-04-03T04:02:12;4.33;;;1.70;;
4726;SDS011;2377;51.734;8.950;2023-04-03T04:04:39;5.43;;;2.00;;
4726;SDS011;2377;51.734;8.950;2023-04-03T04:07:08;5.50;;;2.03;;
4726;SDS011;2377;51.734;8.950;2023-04-03T04:09:35;3.33;;;1.70;;
4726;SDS011;2377;51.734;8.950;2023-04-03T04:12:02;5.87;;;2.20;;
4726;SDS011;2377;51.734;8.950;2023-04-03T04:14:29;4.47;;;1.67;;
4726;SDS011;2377;51.734;8.950;2023-04-03T04:16:56;4.57;;;1.93;;
4726;SDS011;2377;51.734;8.950;2023-04-03T04:19:23;5.30;;;1.70;;
4726;SDS011;2377;51.734;8.950;2023-04-03T04:21:50;3.20;;;1.50;;
4726;SDS011;2377;51.734;8.950;2023-04-03T04:24:19;6.50;;;1.63;;
4726;SDS011;2377;51.734;8.950;2023-04-03T04:26:47;10.33;;;2.27;;
4726;SDS011;2377;51.734;8.950;2023-04-03T04:29:14;5.60;;;1.97;;
4726;SDS011;2377;51.734;8.950;2023-04-03T04:31:41;5.00;;;1.80;;
4726;SDS011;2377;51.734;8.950;2023-04-03T04:34:09;6.33;;;1.70;;
4726;SDS011;2377;51.734;8.950;2023-04-03T04:36:37;6.90;;;2.10;;
4726;SDS011;2377;51.734;8.950;2023-04-03T04:39:05;6.00;;;1.93;;
4726;SDS011;2377;51.734;8.950;2023-04-03T04:41:33;8.37;;;2.17;;
4726;SDS011;2377;51.734;8.950;2023-04-03T04:44:00;5.87;;;1.50;;
4726;SDS011;2377;51.734;8.950;2023-04-03T04:46:27;6.63;;;1.60;;
4726;SDS011;2377;51.734;8.950;2023-04-03T04:48:55;7.33;;;2.10;;
4726;SDS011;2377;51.734;8.950;2023-04-03T04:51:22;7.83;;;2.40;;
4726;SDS011;2377;51.734;8.950;2023-04-03T04:53:49;4.57;;;1.87;;
4726;SDS011;2377;51.734;8.950;2023-04-03T04:56:16;6.00;;;1.80;;
4726;SDS011;2377;51.734;8.950;2023-04-03T04:58:44;5.93;;;1.70;;
4726;SDS011;2377;51.734;8.950;2023-04-03T05:01:11;6.07;;;1.70;;
4726;SDS011;2377;51.734;8.950;2023-04-03T05:03:38;10.30;;;2.30;;
4726;SDS011;2377;51.734;8.950;2023-04-03T05:06:05;5.47;;;2.20;;
4726;SDS011;2377;51.734;8.950;2023-04-03T05:08:33;6.40;;;1.90;;
4726;SDS011;2377;51.734;8.950;2023-04-03T05:11:00;6.27;;;2.00;;
4726;SDS011;2377;51.734;8.950;2023-04-03T05:13:27;7.17;;;2.37;;
4726;SDS011;2377;51.734;8.950;2023-04-03T05:15:55;7.03;;;2.23;;
4726;SDS011;2377;51.734;8.950;2023-04-03T05:18:22;4.57;;;2.27;;
4726;SDS011;2377;51.734;8.950;2023-04-03T05:20:49;8.10;;;2.10;;
4726;SDS011;2377;51.734;8.950;2023-04-03T05:23:17;3.60;;;1.90;;
4726;SDS011;2377;51.734;8.950;2023-04-03T05:25:44;5.20;;;1.90;;
4726;SDS011;2377;51.734;8.950;2023-04-03T05:28:12;3.70;;;1.90;;
4726;SDS011;2377;51.734;8.950;2023-04-03T05:30:39;3.80;;;2.00;;
4726;SDS011;2377;51.734;8.950;2023-04-03T05:33:07;8.27;;;2.80;;
4726;SDS011;2377;51.734;8.950;2023-04-03T05:35:35;7.90;;;2.20;;
4726;SDS011;2377;51.734;8.950;2023-04-03T05:38:04;7.03;;;2.10;;
4726;SDS011;2377;51.734;8.950;2023-04-03T05:40:31;6.50;;;2.50;;
4726;SDS011;2377;51.734;8.950;2023-04-03T05:42:58;6.23;;;2.40;;
4726;SDS011;2377;51.734;8.950;2023-04-03T05:45:25;11.73;;;2.57;;
4726;SDS011;2377;51.734;8.950;2023-04-03T05:47:52;7.03;;;2.40;;
4726;SDS011;2377;51.734;8.950;2023-04-03T05:50:21;8.50;;;2.43;;
4726;SDS011;2377;51.734;8.950;2023-04-03T05:52:48;7.37;;;1.90;;
4726;SDS011;2377;51.734;8.950;2023-04-03T05:55:18;5.07;;;2.23;;
4726;SDS011;2377;51.734;8.950;2023-04-03T05:57:46;13.60;;;2.50;;
4726;SDS011;2377;51.734;8.950;2023-04-03T06:00:13;9.77;;;2.80;;
4726;SDS011;2377;51.734;8.950;2023-04-03T06:02:41;7.73;;;2.60;;
4726;SDS011;2377;51.734;8.950;2023-04-03T06:05:09;7.13;;;2.50;;
4726;SDS011;2377;51.734;8.950;2023-04-03T06:07:39;5.80;;;2.57;;
4726;SDS011;2377;51.734;8.950;2023-04-03T06:10:07;10.37;;;2.90;;
4726;SDS011;2377;51.734;8.950;2023-04-03T06:12:37;6.10;;;2.30;;
4726;SDS011;2377;51.734;8.950;2023-04-03T06:15:04;6.20;;;2.13;;
4726;SDS011;2377;51.734;8.950;2023-04-03T06:17:33;4.20;;;2.17;;
4726;SDS011;2377;51.734;8.950;2023-04-03T06:20:00;6.33;;;2.57;;
4726;SDS011;2377;51.734;8.950;2023-04-03T06:22:28;7.60;;;2.60;;
4726;SDS011;2377;51.734;8.950;2023-04-03T06:24:57;6.53;;;2.10;;
4726;SDS011;2377;51.734;8.950;2023-04-03T06:27:24;4.10;;;2.20;;
4726;SDS011;2377;51.734;8.950;2023-04-03T06:29:51;6.43;;;2.77;;
4726;SDS011;2377;51.734;8.950;2023-04-03T06:32:18;12.23;;;2.80;;
4726;SDS011;2377;51.734;8.950;2023-04-03T06:34:45;5.40;;;2.00;;
4726;SDS011;2377;51.734;8.950;2023-04-03T06:37:14;5.70;;;2.20;;
4726;SDS011;2377;51.734;8.950;2023-04-03T06:39:43;7.93;;;2.60;;
4726;SDS011;2377;51.734;8.950;2023-04-03T06:42:11;7.20;;;2.43;;
4726;SDS011;2377;51.734;8.950;2023-04-03T06:44:38;7.10;;;2.70;;
4726;SDS011;2377;51.734;8.950;2023-04-03T06:47:05;3.80;;;2.20;;
4726;SDS011;2377;51.734;8.950;2023-04-03T06:49:33;6.70;;;2.10;;
4726;SDS011;2377;51.734;8.950;2023-04-03T06:52:02;12.07;;;2.73;;
4726;SDS011;2377;51.734;8.950;2023-04-03T06:54:29;4.70;;;2.00;;
4726;SDS011;2377;51.734;8.950;2023-04-03T06:56:57;5.60;;;2.60;;
4726;SDS011;2377;51.734;8.950;2023-04-03T06:59:25;6.70;;;2.10;;
4726;SDS011;2377;51.734;8.950;2023-04-03T07:01:52;6.63;;;2.10;;
4726;SDS011;2377;51.734;8.950;2023-04-03T07:04:19;8.33;;;2.10;;
4726;SDS011;2377;51.734;8.950;2023-04-03T07:06:46;7.87;;;2.37;;
4726;SDS011;2377;51.734;8.950;2023-04-03T07:09:14;7.07;;;2.60;;
4726;SDS011;2377;51.734;8.950;2023-04-03T07:11:41;7.17;;;2.33;;
4726;SDS011;2377;51.734;8.950;2023-04-03T07:14:08;8.33;;;2.07;;
4726;SDS011;2377;51.734;8.950;2023-04-03T07:16:37;6.03;;;2.17;;
4726;SDS011;2377;51.734;8.950;2023-04-03T07:19:04;6.47;;;2.00;;
4726;SDS011;2377;51.734;8.950;2023-04-03T07:21:31;13.50;;;3.00;;
4726;SDS011;2377;51.734;8.950;2023-04-03T07:23:58;4.23;;;2.30;;
4726;SDS011;2377;51.734;8.950;2023-04-03T07:26:25;11.17;;;2.10;;
4726;SDS011;2377;51.734;8.950;2023-04-03T07:28:53;6.40;;;2.40;;
4726;SDS011;2377;51.734;8.950;2023-04-03T07:31:20;8.53;;;2.20;;
4726;SDS011;2377;51.734;8.950;2023-04-03T07:33:48;7.17;;;2.30;;
4726;SDS011;2377;51.734;8.950;2023-04-03T07:36:16;8.57;;;2.67;;
4726;SDS011;2377;51.734;8.950;2023-04-03T07:38:46;7.17;;;2.00;;
4726;SDS011;2377;51.734;8.950;2023-04-03T07:41:13;6.87;;;1.90;;
4726;SDS011;2377;51.734;8.950;2023-04-03T07:43:43;6.20;;;2.27;;
4726;SDS011;2377;51.734;8.950;2023-04-03T07:46:11;5.33;;;1.93;;
4726;SDS011;2377;51.734;8.950;2023-04-03T07:48:38;4.53;;;1.57;;
4726;SDS011;2377;51.734;8.950;2023-04-03T07:51:07;5.23;;;1.90;;
4726;SDS011;2377;51.734;8.950;2023-04-03T07:53:34;3.87;;;1.77;;
4726;SDS011;2377;51.734;8.950;2023-04-03T07:56:01;4.40;;;1.70;;
4726;SDS011;2377;51.734;8.950;2023-04-03T07:58:28;3.83;;;1.90;;
4726;SDS011;2377;51.734;8.950;2023-04-03T08:00:55;3.70;;;1.53;;
4726;SDS011;2377;51.734;8.950;2023-04-03T08:03:23;3.00;;;1.50;;
4726;SDS011;2377;51.734;8.950;2023-04-03T08:05:50;4.23;;;1.80;;
4726;SDS011;2377;51.734;8.950;2023-04-03T08:08:20;4.83;;;1.97;;
4726;SDS011;2377;51.734;8.950;2023-04-03T08:10:49;5.10;;;1.73;;
4726;SDS011;2377;51.734;8.950;2023-04-03T08:13:16;3.27;;;1.53;;
4726;SDS011;2377;51.734;8.950;2023-04-03T08:15:44;3.30;;;1.47;;
4726;SDS011;2377;51.734;8.950;2023-04-03T08:18:12;6.67;;;1.70;;
4726;SDS011;2377;51.734;8.950;2023-04-03T08:20:39;4.77;;;1.50;;
4726;SDS011;2377;51.734;8.950;2023-04-03T08:23:07;3.60;;;1.80;;
4726;SDS011;2377;51.734;8.950;2023-04-03T08:25:38;4.67;;;1.83;;
4726;SDS011;2377;51.734;8.950;2023-04-03T08:28:06;10.00;;;2.03;;
4726;SDS011;2377;51.734;8.950;2023-04-03T08:30:34;4.60;;;1.60;;
4726;SDS011;2377;51.734;8.950;2023-04-03T08:33:03;5.63;;;1.70;;
4726;SDS011;2377;51.734;8.950;2023-04-03T08:35:31;3.27;;;1.60;;
4726;SDS011;2377;51.734;8.950;2023-04-03T08:37:58;4.63;;;1.60;;
4726;SDS011;2377;51.734;8.950;2023-04-03T08:40:25;2.00;;;1.23;;
4726;SDS011;2377;51.734;8.950;2023-04-03T08:42:57;5.10;;;1.57;;
4726;SDS011;2377;51.734;8.950;2023-04-03T08:45:49;9.60;;;2.13;;
4726;SDS011;2377;51.734;8.950;2023-04-03T08:48:21;4.10;;;1.63;;
4726;SDS011;2377;51.734;8.950;2023-04-03T08:50:56;3.80;;;1.40;;
4726;SDS011;2377;51.734;8.950;2023-04-03T08:53:30;4.13;;;1.60;;
4726;SDS011;2377;51.734;8.950;2023-04-03T08:56:02;3.87;;;1.70;;
4726;SDS011;2377;51.734;8.950;2023-04-03T08:58:40;6.20;;;1.77;;
4726;SDS011;2377;51.734;8.950;2023-04-03T09:01:16;4.00;;;1.70;;
4726;SDS011;2377;51.734;8.950;2023-04-03T09:03:47;7.03;;;1.97;;
4726;SDS011;2377;51.734;8.950;2023-04-03T09:06:15;6.20;;;1.90;;
4726;SDS011;2377;51.734;8.950;2023-04-03T09:08:47;6.47;;;1.63;;
4726;SDS011;2377;51.734;8.950;2023-04-03T09:11:33;4.23;;;1.40;;
4726;SDS011;2377;51.734;8.950;2023-04-03T09:14:15;3.40;;;1.47;;
4726;SDS011;2377;51.734;8.950;2023-04-03T09:16:53;4.80;;;1.70;;
4726;SDS011;2377;51.734;8.950;2023-04-03T09:19:25;2.97;;;1.40;;
4726;SDS011;2377;51.734;8.950;2023-04-03T09:22:11;2.87;;;1.47;;
4726;SDS011;2377;51.734;8.950;2023-04-03T09:24:47;5.80;;;1.50;;
4726;SDS011;2377;51.734;8.950;2023-04-03T09:27:23;6.10;;;1.47;;
4726;SDS011;2377;51.734;8.950;2023-04-03T09:29:53;3.97;;;1.27;;
4726;SDS011;2377;51.734;8.950;2023-04-03T09:32:26;3.80;;;1.50;;
4726;SDS011;2377;51.734;8.950;2023-04-03T09:34:57;3.20;;;1.33;;
4726;SDS011;2377;51.734;8.950;2023-04-03T09:37:36;3.20;;;1.40;;
4726;SDS011;2377;51.734;8.950;2023-04-03T09:40:27;4.27;;;1.27;;
4726;SDS011;2377;51.734;8.950;2023-04-03T09:43:01;6.90;;;1.80;;
4726;SDS011;2377;51.734;8.950;2023-04-03T09:45:48;6.67;;;1.87;;
4726;SDS011;2377;51.734;8.950;2023-04-03T09:48:18;6.50;;;1.60;;
4726;SDS011;2377;51.734;8.950;2023-04-03T09:50:55;5.90;;;1.20;;
4726;SDS011;2377;51.734;8.950;2023-04-03T09:53:30;4.90;;;1.53;;
4726;SDS011;2377;51.734;8.950;2023-04-03T09:56:03;5.40;;;1.40;;
4726;SDS011;2377;51.734;8.950;2023-04-03T09:58:47;3.50;;;1.47;;
4726;SDS011;2377;51.734;8.950;2023-04-03T10:01:25;3.90;;;1.57;;
4726;SDS011;2377;51.734;8.950;2023-04-03T10:04:06;3.90;;;1.20;;
4726;SDS011;2377;51.734;8.950;2023-04-03T10:06:37;5.70;;;1.70;;
4726;SDS011;2377;51.734;8.950;2023-04-03T10:09:15;4.50;;;1.23;;
4726;SDS011;2377;51.734;8.950;2023-04-03T10:11:57;6.07;;;1.50;;
4726;SDS011;2377;51.734;8.950;2023-04-03T10:14:29;3.10;;;1.27;;
4726;SDS011;2377;51.734;8.950;2023-04-03T10:17:01;4.57;;;1.50;;
4726;SDS011;2377;51.734;8.950;2023-04-03T10:19:43;6.23;;;1.50;;
4726;SDS011;2377;51.734;8.950;2023-04-03T10:22:21;4.83;;;1.73;;
4726;SDS011;2377;51.734;8.950;2023-04-03T10:25:04;6.83;;;1.50;;
4726;SDS011;2377;51.734;8.950;2023-04-03T10:27:44;2.90;;;1.40;;
4726;SDS011;2377;51.734;8.950;2023-04-03T10:30:27;8.70;;;1.87;;
4726;SDS011;2377;51.734;8.950;2023-04-03T10:33:12;7.50;;;1.47;;
4726;SDS011;2377;51.734;8.950;2023-04-03T10:36:06;3.23;;;1.30;;
4726;SDS011;2377;51.734;8.950;2023-04-03T10:38:47;7.27;;;1.47;;
4726;SDS011;2377;51.734;8.950;2023-04-03T10:41:24;3.87;;;1.50;;
4726;SDS011;2377;51.734;8.950;2023-04-03T10:44:10;4.30;;;1.20;;
4726;SDS011;2377;51.734;8.950;2023-04-03T10:46:47;4.47;;;1.50;;
4726;SDS011;2377;51.734;8.950;2023-04-03T10:49:25;2.77;;;1.37;;
4726;SDS011;2377;51.734;8.950;2023-04-03T10:52:11;3.30;;;1.47;;
4726;SDS011;2377;51.734;8.950;2023-04-03T10:54:48;3.63;;;1.40;;
4726;SDS011;2377;51.734;8.950;2023-04-03T10:57:29;3.83;;;1.50;;
4726;SDS011;2377;51.734;8.950;2023-04-03T10:59:57;3.50;;;1.23;;
4726;SDS011;2377;51.734;8.950;2023-04-03T11:02:30;2.70;;;1.50;;
4726;SDS011;2377;51.734;8.950;2023-04-03T11:05:05;4.67;;;1.47;;
4726;SDS011;2377;51.734;8.950;2023-04-03T11:07:45;4.47;;;1.40;;
4726;SDS011;2377;51.734;8.950;2023-04-03T11:10:27;3.30;;;1.50;;
4726;SDS011;2377;51.734;8.950;2023-04-03T11:13:06;5.73;;;1.50;;
4726;SDS011;2377;51.734;8.950;2023-04-03T11:15:41;4.57;;;1.30;;
4726;SDS011;2377;51.734;8.950;2023-04-03T11:18:12;7.80;;;1.30;;
4726;SDS011;2377;51.734;8.950;2023-04-03T11:20:48;2.83;;;1.17;;
4726;SDS011;2377;51.734;8.950;2023-04-03T11:23:28;5.43;;;1.43;;
4726;SDS011;2377;51.734;8.950;2023-04-03T11:26:10;3.60;;;1.40;;
4726;SDS011;2377;51.734;8.950;2023-04-03T11:28:40;5.23;;;1.70;;
4726;SDS011;2377;51.734;8.950;2023-04-03T11:31:22;3.43;;;1.70;;
4726;SDS011;2377;51.734;8.950;2023-04-03T11:34:06;3.40;;;1.73;;
4726;SDS011;2377;51.734;8.950;2023-04-03T11:36:50;3.60;;;1.40;;
4726;SDS011;2377;51.734;8.950;2023-04-03T11:39:23;5.47;;;1.60;;
4726;SDS011;2377;51.734;8.950;2023-04-03T11:44:49;2.10;;;1.20;;
4726;SDS011;2377;51.734;8.950;2023-04-03T11:56:26;3.60;;;1.43;;
4726;SDS011;2377;51.734;8.950;2023-04-03T12:01:49;5.20;;;1.43;;
4726;SDS011;2377;51.734;8.950;2023-04-03T12:04:19;5.70;;;1.80;;
4726;SDS011;2377;51.734;8.950;2023-04-03T12:06:51;5.27;;;1.80;;
4726;SDS011;2377;51.734;8.950;2023-04-03T12:12:43;5.07;;;1.40;;
4726;SDS011;2377;51.734;8.950;2023-04-03T12:18:31;5.33;;;1.50;;
4726;SDS011;2377;51.734;8.950;2023-04-03T12:21:09;5.07;;;1.70;;
4726;SDS011;2377;51.734;8.950;2023-04-03T12:23:55;4.00;;;1.50;;
4726;SDS011;2377;51.734;8.950;2023-04-03T12:26:38;3.80;;;1.50;;
4726;SDS011;2377;51.734;8.950;2023-04-03T12:29:13;3.93;;;1.67;;
4726;SDS011;2377;51.734;8.950;2023-04-03T12:31:49;5.90;;;1.60;;
4726;SDS011;2377;51.734;8.950;2023-04-03T12:34:42;5.07;;;1.80;;
4726;SDS011;2377;51.734;8.950;2023-04-03T12:37:34;5.00;;;1.73;;
4726;SDS011;2377;51.734;8.950;2023-04-03T12:40:25;3.03;;;1.57;;
4726;SDS011;2377;51.734;8.950;2023-04-03T12:46:11;5.57;;;1.60;;
4726;SDS011;2377;51.734;8.950;2023-04-03T12:48:47;2.60;;;1.50;;
4726;SDS011;2377;51.734;8.950;2023-04-03T12:51:17;2.97;;;1.53;;
4726;SDS011;2377;51.734;8.950;2023-04-03T12:53:52;5.97;;;1.43;;
4726;SDS011;2377;51.734;8.950;2023-04-03T12:56:41;4.20;;;1.63;;
4726;SDS011;2377;51.734;8.950;2023-04-03T12:59:15;8.77;;;1.83;;
4726;SDS011;2377;51.734;8.950;2023-04-03T13:01:52;4.73;;;1.60;;
4726;SDS011;2377;51.734;8.950;2023-04-03T13:04:20;6.00;;;1.57;;
4726;SDS011;2377;51.734;8.950;2023-04-03T13:06:48;8.07;;;2.27;;
4726;SDS011;2377;51.734;8.950;2023-04-03T13:09:18;2.67;;;1.20;;
4726;SDS011;2377;51.734;8.950;2023-04-03T13:11:48;4.73;;;2.10;;
4726;SDS011;2377;51.734;8.950;2023-04-03T13:14:23;4.77;;;1.73;;
4726;SDS011;2377;51.734;8.950;2023-04-03T13:16:54;2.80;;;1.57;;
4726;SDS011;2377;51.734;8.950;2023-04-03T13:19:24;4.83;;;1.70;;
4726;SDS011;2377;51.734;8.950;2023-04-03T13:21:56;8.00;;;1.73;;
4726;SDS011;2377;51.734;8.950;2023-04-03T13:24:29;2.90;;;1.53;;
4726;SDS011;2377;51.734;8.950;2023-04-03T13:27:03;3.17;;;1.70;;
4726;SDS011;2377;51.734;8.950;2023-04-03T13:29:35;4.77;;;1.67;;
4726;SDS011;2377;51.734;8.950;2023-04-03T13:32:04;5.03;;;2.07;;
4726;SDS011;2377;51.734;8.950;2023-04-03T13:34:36;4.50;;;1.77;;
4726;SDS011;2377;51.734;8.950;2023-04-03T13:37:06;6.43;;;1.73;;
4726;SDS011;2377;51.734;8.950;2023-04-03T13:39:55;5.87;;;2.00;;
4726;SDS011;2377;51.734;8.950;2023-04-03T13:42:28;8.40;;;1.80;;
4726;SDS011;2377;51.734;8.950;2023-04-03T13:45:21;3.90;;;1.77;;
4726;SDS011;2377;51.734;8.950;2023-04-03T13:47:53;4.30;;;1.87;;
4726;SDS011;2377;51.734;8.950;2023-04-03T13:50:49;4.43;;;1.80;;
4726;SDS011;2377;51.734;8.950;2023-04-03T13:53:24;3.20;;;1.30;;
4726;SDS011;2377;51.734;8.950;2023-04-03T13:55:55;6.17;;;1.70;;
4726;SDS011;2377;51.734;8.950;2023-04-03T13:58:32;7.37;;;1.90;;
4726;SDS011;2377;51.734;8.950;2023-04-03T14:01:06;4.07;;;1.90;;
4726;SDS011;2377;51.734;8.950;2023-04-03T14:03:40;4.73;;;1.80;;
4726;SDS011;2377;51.734;8.950;2023-04-03T14:06:11;4.77;;;1.80;;
4726;SDS011;2377;51.734;8.950;2023-04-03T14:08:41;4.63;;;1.63;;
4726;SDS011;2377;51.734;8.950;2023-04-03T14:11:11;3.07;;;1.37;;
4726;SDS011;2377;51.734;8.950;2023-04-03T14:13:42;5.73;;;1.70;;
4726;SDS011;2377;51.734;8.950;2023-04-03T14:16:16;20.30;;;2.07;;
4726;SDS011;2377;51.734;8.950;2023-04-03T14:18:47;3.53;;;1.70;;
4726;SDS011;2377;51.734;8.950;2023-04-03T14:21:16;5.40;;;1.73;;
4726;SDS011;2377;51.734;8.950;2023-04-03T14:23:46;3.93;;;1.70;;
4726;SDS011;2377;51.734;8.950;2023-04-03T14:26:15;7.10;;;1.60;;
4726;SDS011;2377;51.734;8.950;2023-04-03T14:28:47;7.00;;;1.70;;
4726;SDS011;2377;51.734;8.950;2023-04-03T14:31:18;8.37;;;1.93;;
4726;SDS011;2377;51.734;8.950;2023-04-03T14:33:46;4.80;;;1.83;;
4726;SDS011;2377;51.734;8.950;2023-04-03T14:36:15;3.10;;;1.50;;
4726;SDS011;2377;51.734;8.950;2023-04-03T14:38:46;4.60;;;1.60;;
4726;SDS011;2377;51.734;8.950;2023-04-03T14:41:15;3.90;;;1.77;;
4726;SDS011;2377;51.734;8.950;2023-04-03T14:43:45;6.33;;;1.83;;
4726;SDS011;2377;51.734;8.950;2023-04-03T14:46:14;6.50;;;2.03;;
4726;SDS011;2377;51.734;8.950;2023-04-03T14:48:47;5.73;;;1.73;;
4726;SDS011;2377;51.734;8.950;2023-04-03T14:51:15;5.40;;;1.30;;
4726;SDS011;2377;51.734;8.950;2023-04-03T14:53:42;6.73;;;2.10;;
4726;SDS011;2377;51.734;8.950;2023-04-03T14:56:11;3.70;;;1.67;;
4726;SDS011;2377;51.734;8.950;2023-04-03T14:58:41;7.70;;;2.10;;
4726;SDS011;2377;51.734;8.950;2023-04-03T15:01:09;2.83;;;1.40;;
4726;SDS011;2377;51.734;8.950;2023-04-03T15:03:40;5.17;;;1.63;;
4726;SDS011;2377;51.734;8.950;2023-04-03T15:06:08;5.83;;;2.10;;
4726;SDS011;2377;51.734;8.950;2023-04-03T15:08:38;4.30;;;1.40;;
4726;SDS011;2377;51.734;8.950;2023-04-03T15:11:06;4.33;;;1.67;;
4726;SDS011;2377;51.734;8.950;2023-04-03T15:13:34;3.90;;;1.50;;
4726;SDS011;2377;51.734;8.950;2023-04-03T15:16:02;3.50;;;1.70;;
4726;SDS011;2377;51.734;8.950;2023-04-03T15:18:31;5.63;;;1.53;;
4726;SDS011;2377;51.734;8.950;2023-04-03T15:21:05;3.93;;;1.53;;
4726;SDS011;2377;51.734;8.950;2023-04-03T15:23:35;5.47;;;2.03;;
4726;SDS011;2377;51.734;8.950;2023-04-03T15:26:02;5.37;;;1.70;;
4726;SDS011;2377;51.734;8.950;2023-04-03T15:28:31;4.67;;;1.80;;
4726;SDS011;2377;51.734;8.950;2023-04-03T15:31:02;4.10;;;1.73;;
4726;SDS011;2377;51.734;8.950;2023-04-03T15:33:30;4.00;;;1.97;;
4726;SDS011;2377;51.734;8.950;2023-04-03T15:35:58;7.07;;;1.90;;
4726;SDS011;2377;51.734;8.950;2023-04-03T15:38:27;3.50;;;1.53;;
4726;SDS011;2377;51.734;8.950;2023-04-03T15:40:54;5.73;;;1.93;;
4726;SDS011;2377;51.734;8.950;2023-04-03T15:43:23;3.80;;;1.80;;
4726;SDS011;2377;51.734;8.950;2023-04-03T15:45:50;3.23;;;1.40;;
4726;SDS011;2377;51.734;8.950;2023-04-03T15:48:17;4.43;;;1.83;;
4726;SDS011;2377;51.734;8.950;2023-04-03T15:50:45;4.37;;;1.70;;
4726;SDS011;2377;51.734;8.950;2023-04-03T15:53:12;3.73;;;1.60;;
4726;SDS011;2377;51.734;8.950;2023-04-03T15:55:42;3.67;;;1.80;;
4726;SDS011;2377;51.734;8.950;2023-04-03T15:58:09;5.73;;;1.90;;
4726;SDS011;2377;51.734;8.950;2023-04-03T16:00:37;4.30;;;1.50;;
4726;SDS011;2377;51.734;8.950;2023-04-03T16:03:05;3.43;;;1.63;;
4726;SDS011;2377;51.734;8.950;2023-04-03T16:05:37;4.33;;;1.80;;